createdAt,value
2022-09-16T00:07:05.573Z,99.90001
2022-09-16T00:37:23.358Z,99.90001
2022-09-16T01:07:40.330Z,99.90001
2022-09-16T01:37:59.284Z,99.90001
2022-09-16T02:08:16.901Z,99.90001
2022-09-16T02:38:39.779Z,99.90001
2022-09-16T03:08:57.987Z,99.90001
2022-09-16T03:39:15.274Z,99.90001
2022-09-16T04:09:32.355Z,99.90001
2022-09-16T04:39:49.285Z,99.90001
2022-09-16T05:10:06.415Z,99.90001
2022-09-16T05:40:24.125Z,99.90001
2022-09-16T06:10:42.731Z,99.90001
2022-09-16T06:41:03.970Z,99.90001
2022-09-16T07:11:26.317Z,99.90001
2022-09-16T07:41:54.047Z,91.4
2022-09-16T08:12:14.755Z,87
2022-09-16T08:42:42.652Z,65.9
2022-09-16T09:13:03.545Z,65.1
2022-09-16T09:43:04.063Z,78.7
2022-09-16T10:13:18.578Z,88.30001
2022-09-16T10:43:36.502Z,88.8
2022-09-16T11:13:55.669Z,89.3
2022-09-16T11:44:16.370Z,90
2022-09-16T12:14:32.812Z,92.40001
2022-09-16T13:15:37.945Z,86.3
2022-09-16T13:45:43.694Z,96.1
2022-09-16T14:15:59.002Z,98.30001
2022-09-16T14:46:16.196Z,99.90001
2022-09-16T15:16:32.769Z,97.40001
2022-09-16T15:46:43.989Z,99.90001
2022-09-16T16:17:12.809Z,99.90001
2022-09-16T16:47:20.683Z,99.90001
2022-09-16T17:17:37.369Z,99.90001
2022-09-16T17:47:54.357Z,99.90001
2022-09-16T18:18:11.273Z,99.90001
2022-09-16T18:48:28.095Z,99.90001
2022-09-16T19:18:45.361Z,99.90001
2022-09-16T19:49:01.974Z,99.90001
2022-09-16T20:19:19.812Z,99.90001
2022-09-16T20:49:38.553Z,99.90001
2022-09-16T21:19:56.832Z,99.90001
2022-09-16T21:50:15.126Z,99.90001
2022-09-16T22:20:32.748Z,99.90001
2022-09-16T22:50:50.961Z,99.90001
2022-09-16T23:21:08.895Z,99.90001
2022-09-16T23:51:28.451Z,99.90001
